sensor_id;sensor_type;location;lat;lon;timestamp;temperature;humidity
20773;DHT22;10546;50.674;4.616;2022-11-11T00:00:15;8.90;99.90
20773;DHT22;10546;50.674;4.616;2022-11-11T00:02:40;8.80;99.90
20773;DHT22;10546;50.674;4.616;2022-11-11T00:05:06;8.70;99.90
20773;DHT22;10546;50.674;4.616;2022-11-11T00:07:32;8.70;99.90
20773;DHT22;10546;50.674;4.616;2022-11-11T00:09:57;8.90;99.90
20773;DHT22;10546;50.674;4.616;2022-11-11T00:12:23;8.80;99.90
20773;DHT22;10546;50.674;4.616;2022-11-11T07:55:11;7.90;99.90
20773;DHT22;10546;50.674;4.616;2022-11-11T07:57:37;8.00;99.90
20773;DHT22;10546;50.674;4.616;2022-11-11T08:00:04;8.10;99.90
20773;DHT22;10546;50.674;4.616;2022-11-11T08:02:29;8.00;99.90
20773;DHT22;10546;50.674;4.616;2022-11-11T08:04:55;8.20;99.90
20773;DHT22;10546;50.674;4.616;2022-11-11T08:07:21;8.30;99.90
20773;DHT22;10546;50.674;4.616;2022-11-11T08:09:46;8.40;99.90
20773;DHT22;10546;50.674;4.616;2022-11-11T08:12:12;8.60;99.90
20773;DHT22;10546;50.674;4.616;2022-11-11T08:14:56;8.80;99.90
20773;DHT22;10546;50.674;4.616;2022-11-11T08:17:22;8.70;99.90
20773;DHT22;10546;50.674;4.616;2022-11-11T08:19:47;8.80;99.90
20773;DHT22;10546;50.674;4.616;2022-11-11T08:22:13;8.80;99.90
20773;DHT22;10546;50.674;4.616;2022-11-11T08:24:38;8.90;99.90
20773;DHT22;10546;50.674;4.616;2022-11-11T08:27:04;9.00;99.90
20773;DHT22;10546;50.674;4.616;2022-11-11T08:29:29;9.30;99.90
20773;DHT22;10546;50.674;4.616;2022-11-11T08:31:55;9.30;99.90
20773;DHT22;10546;50.674;4.616;2022-11-11T08:34:22;9.40;99.90
20773;DHT22;10546;50.674;4.616;2022-11-11T08:36:47;9.50;99.90
20773;DHT22;10546;50.674;4.616;2022-11-11T08:39:13;9.90;99.90
20773;DHT22;10546;50.674;4.616;2022-11-11T08:41:38;10.20;99.90
20773;DHT22;10546;50.674;4.616;2022-11-11T08:44:04;10.40;99.90
20773;DHT22;10546;50.674;4.616;2022-11-11T08:46:30;10.50;99.90
20773;DHT22;10546;50.674;4.616;2022-11-11T08:48:55;10.50;99.90
20773;DHT22;10546;50.674;4.616;2022-11-11T08:51:21;10.70;99.90
20773;DHT22;10546;50.674;4.616;2022-11-11T08:53:47;10.90;99.90
20773;DHT22;10546;50.674;4.616;2022-11-11T08:56:12;10.90;99.90
20773;DHT22;10546;50.674;4.616;2022-11-11T08:58:38;11.00;99.90
20773;DHT22;10546;50.674;4.616;2022-11-11T09:01:09;11.20;99.90
20773;DHT22;10546;50.674;4.616;2022-11-11T09:03:34;11.30;99.90
20773;DHT22;10546;50.674;4.616;2022-11-11T09:06:00;11.60;99.90
20773;DHT22;10546;50.674;4.616;2022-11-11T09:08:25;11.80;99.90
20773;DHT22;10546;50.674;4.616;2022-11-11T09:10:51;11.70;99.90
20773;DHT22;10546;50.674;4.616;2022-11-11T09:13:16;11.80;99.90
20773;DHT22;10546;50.674;4.616;2022-11-11T09:15:42;12.30;99.90
20773;DHT22;10546;50.674;4.616;2022-11-11T09:18:08;12.80;99.90
20773;DHT22;10546;50.674;4.616;2022-11-11T09:20:34;13.10;99.90
20773;DHT22;10546;50.674;4.616;2022-11-11T09:23:01;13.60;99.90
20773;DHT22;10546;50.674;4.616;2022-11-11T09:25:27;14.00;99.90
20773;DHT22;10546;50.674;4.616;2022-11-11T09:27:57;14.20;99.90
20773;DHT22;10546;50.674;4.616;2022-11-11T09:30:24;14.50;99.90
20773;DHT22;10546;50.674;4.616;2022-11-11T09:32:50;15.20;99.90
20773;DHT22;10546;50.674;4.616;2022-11-11T09:35:16;15.80;99.90
20773;DHT22;10546;50.674;4.616;2022-11-11T09:37:51;16.40;99.90
20773;DHT22;10546;50.674;4.616;2022-11-11T09:40:19;16.40;99.90
20773;DHT22;10546;50.674;4.616;2022-11-11T09:50:56;17.10;99.90
20773;DHT22;10546;50.674;4.616;2022-11-11T09:53:27;17.10;99.90
20773;DHT22;10546;50.674;4.616;2022-11-11T09:56:01;17.40;99.90
20773;DHT22;10546;50.674;4.616;2022-11-11T09:58:34;17.50;99.90
20773;DHT22;10546;50.674;4.616;2022-11-11T10:01:22;17.30;99.90
20773;DHT22;10546;50.674;4.616;2022-11-11T10:04:11;17.40;99.90
20773;DHT22;10546;50.674;4.616;2022-11-11T10:06:40;17.70;99.90
20773;DHT22;10546;50.674;4.616;2022-11-11T10:09:06;17.50;99.90
20773;DHT22;10546;50.674;4.616;2022-11-11T10:11:56;17.70;99.90
20773;DHT22;10546;50.674;4.616;2022-11-11T10:14:32;17.50;99.90
20773;DHT22;10546;50.674;4.616;2022-11-11T10:17:21;17.50;99.90
20773;DHT22;10546;50.674;4.616;2022-11-11T10:22:24;16.70;99.90
20773;DHT22;10546;50.674;4.616;2022-11-11T10:27:43;15.50;99.90
20773;DHT22;10546;50.674;4.616;2022-11-11T10:30:32;15.30;99.90
20773;DHT22;10546;50.674;4.616;2022-11-11T10:33:15;15.20;99.90
20773;DHT22;10546;50.674;4.616;2022-11-11T10:35:41;15.30;99.90
20773;DHT22;10546;50.674;4.616;2022-11-11T10:38:30;15.10;99.90
20773;DHT22;10546;50.674;4.616;2022-11-11T10:41:07;14.90;99.90
20773;DHT22;10546;50.674;4.616;2022-11-11T10:43:35;14.70;99.90
20773;DHT22;10546;50.674;4.616;2022-11-11T10:46:08;14.60;99.90
20773;DHT22;10546;50.674;4.616;2022-11-11T10:49:01;14.50;99.90
20773;DHT22;10546;50.674;4.616;2022-11-11T10:51:45;14.70;99.90
20773;DHT22;10546;50.674;4.616;2022-11-11T10:54:28;15.00;99.90
20773;DHT22;10546;50.674;4.616;2022-11-11T11:02:09;16.70;99.90
20773;DHT22;10546;50.674;4.616;2022-11-11T11:04:47;17.00;99.90
20773;DHT22;10546;50.674;4.616;2022-11-11T11:07:20;17.00;99.90
20773;DHT22;10546;50.674;4.616;2022-11-11T11:09:56;17.30;99.90
20773;DHT22;10546;50.674;4.616;2022-11-11T11:13:02;17.70;99.90
20773;DHT22;10546;50.674;4.616;2022-11-11T11:15:31;18.00;99.90
20773;DHT22;10546;50.674;4.616;2022-11-11T11:18:09;18.10;99.90
20773;DHT22;10546;50.674;4.616;2022-11-11T11:20:36;18.60;99.90
20773;DHT22;10546;50.674;4.616;2022-11-11T11:23:02;18.90;99.90
20773;DHT22;10546;50.674;4.616;2022-11-11T11:25:30;19.00;99.90
20773;DHT22;10546;50.674;4.616;2022-11-11T11:28:10;19.50;99.90
20773;DHT22;10546;50.674;4.616;2022-11-11T11:30:36;19.40;99.90
20773;DHT22;10546;50.674;4.616;2022-11-11T11:33:06;19.50;99.90
20773;DHT22;10546;50.674;4.616;2022-11-11T11:35:43;19.60;99.90
20773;DHT22;10546;50.674;4.616;2022-11-11T11:38:11;19.50;99.90
20773;DHT22;10546;50.674;4.616;2022-11-11T11:40:54;19.70;99.90
20773;DHT22;10546;50.674;4.616;2022-11-11T11:43:25;19.50;99.90
20773;DHT22;10546;50.674;4.616;2022-11-11T11:45:57;19.60;99.90
20773;DHT22;10546;50.674;4.616;2022-11-11T11:57:55;18.30;99.90
20773;DHT22;10546;50.674;4.616;2022-11-11T12:00:28;18.10;99.90
20773;DHT22;10546;50.674;4.616;2022-11-11T12:05:48;17.70;99.90
20773;DHT22;10546;50.674;4.616;2022-11-11T12:11:17;17.40;99.90
20773;DHT22;10546;50.674;4.616;2022-11-11T12:13:55;16.90;99.90
20773;DHT22;10546;50.674;4.616;2022-11-11T12:24:48;16.40;99.90
20773;DHT22;10546;50.674;4.616;2022-11-11T12:44:07;16.10;99.90
20773;DHT22;10546;50.674;4.616;2022-11-11T12:52:24;16.20;99.90
20773;DHT22;10546;50.674;4.616;2022-11-11T12:58:07;16.20;99.90
20773;DHT22;10546;50.674;4.616;2022-11-11T13:01:02;16.30;99.90
20773;DHT22;10546;50.674;4.616;2022-11-11T13:09:02;16.30;99.90
20773;DHT22;10546;50.674;4.616;2022-11-11T13:16:59;15.80;99.90
20773;DHT22;10546;50.674;4.616;2022-11-11T13:19:34;16.00;99.90
20773;DHT22;10546;50.674;4.616;2022-11-11T13:22:07;15.70;99.90
20773;DHT22;10546;50.674;4.616;2022-11-11T13:24:37;15.60;99.90
20773;DHT22;10546;50.674;4.616;2022-11-11T13:27:06;15.70;99.90
20773;DHT22;10546;50.674;4.616;2022-11-11T13:32:26;15.50;99.90
20773;DHT22;10546;50.674;4.616;2022-11-11T13:34:54;15.50;99.90
20773;DHT22;10546;50.674;4.616;2022-11-11T13:37:29;15.40;99.90
20773;DHT22;10546;50.674;4.616;2022-11-11T13:40:06;15.30;99.90
20773;DHT22;10546;50.674;4.616;2022-11-11T13:42:47;15.30;99.90
20773;DHT22;10546;50.674;4.616;2022-11-11T13:45:27;15.20;99.90
20773;DHT22;10546;50.674;4.616;2022-11-11T13:47:54;15.20;99.90
20773;DHT22;10546;50.674;4.616;2022-11-11T13:50:29;15.20;99.90
20773;DHT22;10546;50.674;4.616;2022-11-11T13:53:11;15.20;99.90
20773;DHT22;10546;50.674;4.616;2022-11-11T13:55:43;15.30;99.90
20773;DHT22;10546;50.674;4.616;2022-11-11T13:58:22;15.40;99.90
20773;DHT22;10546;50.674;4.616;2022-11-11T14:00:59;15.30;99.90
20773;DHT22;10546;50.674;4.616;2022-11-11T14:11:28;15.30;99.90
20773;DHT22;10546;50.674;4.616;2022-11-11T14:13:56;15.30;99.90
20773;DHT22;10546;50.674;4.616;2022-11-11T14:21:55;15.00;99.90
20773;DHT22;10546;50.674;4.616;2022-11-11T14:24:42;15.00;99.90
20773;DHT22;10546;50.674;4.616;2022-11-11T14:29:37;14.90;99.90
20773;DHT22;10546;50.674;4.616;2022-11-11T14:32:28;14.90;99.90
20773;DHT22;10546;50.674;4.616;2022-11-11T14:35:32;14.80;99.90
20773;DHT22;10546;50.674;4.616;2022-11-11T14:40:39;14.70;99.90
20773;DHT22;10546;50.674;4.616;2022-11-11T14:43:38;14.70;99.90
20773;DHT22;10546;50.674;4.616;2022-11-11T14:46:11;14.70;99.90
20773;DHT22;10546;50.674;4.616;2022-11-11T14:48:56;14.60;99.90
20773;DHT22;10546;50.674;4.616;2022-11-11T14:51:47;14.40;99.90
20773;DHT22;10546;50.674;4.616;2022-11-11T14:54:20;14.40;99.90
20773;DHT22;10546;50.674;4.616;2022-11-11T14:56:56;14.30;99.90
20773;DHT22;10546;50.674;4.616;2022-11-11T14:59:24;14.40;99.90
20773;DHT22;10546;50.674;4.616;2022-11-11T15:01:53;14.30;99.90
20773;DHT22;10546;50.674;4.616;2022-11-11T15:04:19;14.30;99.90
20773;DHT22;10546;50.674;4.616;2022-11-11T15:06:57;14.30;99.90
20773;DHT22;10546;50.674;4.616;2022-11-11T15:15:40;14.10;99.90
20773;DHT22;10546;50.674;4.616;2022-11-11T15:21:08;14.00;99.90
20773;DHT22;10546;50.674;4.616;2022-11-11T15:29:22;13.90;99.90
20773;DHT22;10546;50.674;4.616;2022-11-11T15:31:57;13.80;99.90
20773;DHT22;10546;50.674;4.616;2022-11-11T15:37:14;13.60;99.90
20773;DHT22;10546;50.674;4.616;2022-11-11T15:39:45;13.60;99.90
20773;DHT22;10546;50.674;4.616;2022-11-11T15:42:39;13.50;99.90
20773;DHT22;10546;50.674;4.616;2022-11-11T15:45:20;13.40;99.90
20773;DHT22;10546;50.674;4.616;2022-11-11T15:47:48;13.40;99.90
20773;DHT22;10546;50.674;4.616;2022-11-11T15:52:54;13.30;99.90
20773;DHT22;10546;50.674;4.616;2022-11-11T15:55:24;13.30;99.90
20773;DHT22;10546;50.674;4.616;2022-11-11T15:57:50;13.30;99.90
20773;DHT22;10546;50.674;4.616;2022-11-11T16:00:34;13.20;99.90
20773;DHT22;10546;50.674;4.616;2022-11-11T16:03:00;13.20;99.90
20773;DHT22;10546;50.674;4.616;2022-11-11T16:05:28;13.20;99.90
20773;DHT22;10546;50.674;4.616;2022-11-11T16:07:57;13.10;99.90
20773;DHT22;10546;50.674;4.616;2022-11-11T16:10:36;13.10;99.90
20773;DHT22;10546;50.674;4.616;2022-11-11T16:13:20;13.00;99.90
20773;DHT22;10546;50.674;4.616;2022-11-11T16:16:00;13.00;99.90
20773;DHT22;10546;50.674;4.616;2022-11-11T16:18:44;13.00;99.90
20773;DHT22;10546;50.674;4.616;2022-11-11T16:21:21;12.90;99.90
20773;DHT22;10546;50.674;4.616;2022-11-11T16:23:48;13.00;99.90
20773;DHT22;10546;50.674;4.616;2022-11-11T16:26:15;12.90;99.90
20773;DHT22;10546;50.674;4.616;2022-11-11T16:28:52;12.80;99.90
20773;DHT22;10546;50.674;4.616;2022-11-11T16:34:00;12.80;99.90
20773;DHT22;10546;50.674;4.616;2022-11-11T16:36:26;12.70;99.90
20773;DHT22;10546;50.674;4.616;2022-11-11T16:38:51;12.70;99.90
20773;DHT22;10546;50.674;4.616;2022-11-11T16:41:28;12.60;99.90
20773;DHT22;10546;50.674;4.616;2022-11-11T16:43:56;12.50;99.90
20773;DHT22;10546;50.674;4.616;2022-11-11T16:49:45;12.50;99.90
20773;DHT22;10546;50.674;4.616;2022-11-11T16:51:46;12.60;99.90
20773;DHT22;10546;50.674;4.616;2022-11-11T16:54:26;12.50;99.90
20773;DHT22;10546;50.674;4.616;2022-11-11T16:56:54;12.40;99.90
20773;DHT22;10546;50.674;4.616;2022-11-11T16:59:47;12.50;99.90
20773;DHT22;10546;50.674;4.616;2022-11-11T17:02:20;12.40;99.90
20773;DHT22;10546;50.674;4.616;2022-11-11T17:04:57;12.40;99.90
20773;DHT22;10546;50.674;4.616;2022-11-11T17:07:36;12.40;99.90
20773;DHT22;10546;50.674;4.616;2022-11-11T17:10:18;12.40;99.90
20773;DHT22;10546;50.674;4.616;2022-11-11T17:12:44;12.30;99.90
20773;DHT22;10546;50.674;4.616;2022-11-11T17:15:13;12.30;99.90
20773;DHT22;10546;50.674;4.616;2022-11-11T17:17:41;12.20;99.90
20773;DHT22;10546;50.674;4.616;2022-11-11T17:20:13;12.20;99.90
20773;DHT22;10546;50.674;4.616;2022-11-11T17:22:56;12.20;99.90
20773;DHT22;10546;50.674;4.616;2022-11-11T17:25:21;12.20;99.90
20773;DHT22;10546;50.674;4.616;2022-11-11T17:27:47;12.10;99.90
20773;DHT22;10546;50.674;4.616;2022-11-11T17:30:13;12.10;99.90
20773;DHT22;10546;50.674;4.616;2022-11-11T17:32:39;11.90;99.90
20773;DHT22;10546;50.674;4.616;2022-11-11T17:35:06;12.10;99.90
20773;DHT22;10546;50.674;4.616;2022-11-11T17:37:35;12.00;99.90
20773;DHT22;10546;50.674;4.616;2022-11-11T17:40:04;12.00;99.90
20773;DHT22;10546;50.674;4.616;2022-11-11T17:42:30;12.00;99.90
20773;DHT22;10546;50.674;4.616;2022-11-11T17:44:56;11.90;99.90
20773;DHT22;10546;50.674;4.616;2022-11-11T17:47:21;12.00;99.90
20773;DHT22;10546;50.674;4.616;2022-11-11T17:49:47;11.90;99.90
20773;DHT22;10546;50.674;4.616;2022-11-11T17:52:13;11.90;99.90
20773;DHT22;10546;50.674;4.616;2022-11-11T17:54:38;11.80;99.90
20773;DHT22;10546;50.674;4.616;2022-11-11T17:57:04;11.80;99.90
20773;DHT22;10546;50.674;4.616;2022-11-11T17:59:30;11.90;99.90
20773;DHT22;10546;50.674;4.616;2022-11-11T18:01:56;11.80;99.90
20773;DHT22;10546;50.674;4.616;2022-11-11T18:04:21;11.70;99.90
20773;DHT22;10546;50.674;4.616;2022-11-11T18:06:47;11.70;99.90
20773;DHT22;10546;50.674;4.616;2022-11-11T18:09:13;11.60;99.90
20773;DHT22;10546;50.674;4.616;2022-11-11T18:11:38;11.50;99.90
20773;DHT22;10546;50.674;4.616;2022-11-11T18:14:04;11.50;99.90
20773;DHT22;10546;50.674;4.616;2022-11-11T18:16:30;11.40;99.90
20773;DHT22;10546;50.674;4.616;2022-11-11T18:18:55;11.40;99.90
20773;DHT22;10546;50.674;4.616;2022-11-11T18:21:26;11.40;99.90
20773;DHT22;10546;50.674;4.616;2022-11-11T18:23:51;11.40;99.90
20773;DHT22;10546;50.674;4.616;2022-11-11T18:26:17;11.30;99.90
20773;DHT22;10546;50.674;4.616;2022-11-11T18:28:43;11.30;99.90
20773;DHT22;10546;50.674;4.616;2022-11-11T18:31:11;11.30;99.90
20773;DHT22;10546;50.674;4.616;2022-11-11T18:33:38;11.20;99.90
20773;DHT22;10546;50.674;4.616;2022-11-11T18:36:11;11.30;99.90
20773;DHT22;10546;50.674;4.616;2022-11-11T18:38:37;11.40;99.90
20773;DHT22;10546;50.674;4.616;2022-11-11T18:41:09;11.20;99.90
20773;DHT22;10546;50.674;4.616;2022-11-11T18:43:43;11.20;99.90
20773;DHT22;10546;50.674;4.616;2022-11-11T18:46:11;11.20;99.90
20773;DHT22;10546;50.674;4.616;2022-11-11T18:48:38;11.10;99.90
20773;DHT22;10546;50.674;4.616;2022-11-11T18:51:05;11.10;99.90
20773;DHT22;10546;50.674;4.616;2022-11-11T18:53:32;11.00;99.90
20773;DHT22;10546;50.674;4.616;2022-11-11T18:58:33;11.00;99.90
20773;DHT22;10546;50.674;4.616;2022-11-11T19:01:29;11.00;99.90
20773;DHT22;10546;50.674;4.616;2022-11-11T19:04:01;10.90;99.90
20773;DHT22;10546;50.674;4.616;2022-11-11T19:06:29;10.90;99.90
20773;DHT22;10546;50.674;4.616;2022-11-11T19:08:57;10.90;99.90
20773;DHT22;10546;50.674;4.616;2022-11-11T19:11:24;10.90;99.90
20773;DHT22;10546;50.674;4.616;2022-11-11T19:13:50;10.90;99.90
20773;DHT22;10546;50.674;4.616;2022-11-11T19:16:18;10.90;99.90
20773;DHT22;10546;50.674;4.616;2022-11-11T19:18:44;10.90;99.90
20773;DHT22;10546;50.674;4.616;2022-11-11T19:21:11;10.80;99.90
20773;DHT22;10546;50.674;4.616;2022-11-11T19:23:39;10.80;99.90
20773;DHT22;10546;50.674;4.616;2022-11-11T19:26:05;10.80;99.90
20773;DHT22;10546;50.674;4.616;2022-11-11T19:28:31;10.80;99.90
20773;DHT22;10546;50.674;4.616;2022-11-11T19:31:03;10.70;99.90
20773;DHT22;10546;50.674;4.616;2022-11-11T19:33:31;10.60;99.90
20773;DHT22;10546;50.674;4.616;2022-11-11T19:35:59;10.70;99.90
20773;DHT22;10546;50.674;4.616;2022-11-11T19:38:25;10.70;99.90
20773;DHT22;10546;50.674;4.616;2022-11-11T19:40:51;10.60;99.90
20773;DHT22;10546;50.674;4.616;2022-11-11T19:43:17;10.60;99.90
20773;DHT22;10546;50.674;4.616;2022-11-11T19:45:43;10.80;99.90
20773;DHT22;10546;50.674;4.616;2022-11-11T19:48:09;10.60;99.90
20773;DHT22;10546;50.674;4.616;2022-11-11T19:50:35;10.60;99.90
20773;DHT22;10546;50.674;4.616;2022-11-11T19:53:01;10.60;99.90
20773;DHT22;10546;50.674;4.616;2022-11-11T19:55:26;10.60;99.90
20773;DHT22;10546;50.674;4.616;2022-11-11T19:57:52;10.60;99.90
20773;DHT22;10546;50.674;4.616;2022-11-11T20:00:18;10.60;99.90
20773;DHT22;10546;50.674;4.616;2022-11-11T20:02:43;10.50;99.90
20773;DHT22;10546;50.674;4.616;2022-11-11T20:05:09;10.60;99.90
20773;DHT22;10546;50.674;4.616;2022-11-11T20:07:35;10.50;99.90
20773;DHT22;10546;50.674;4.616;2022-11-11T20:10:00;10.40;99.90
20773;DHT22;10546;50.674;4.616;2022-11-11T20:12:26;10.40;99.90
20773;DHT22;10546;50.674;4.616;2022-11-11T20:14:52;10.40;99.90
20773;DHT22;10546;50.674;4.616;2022-11-11T20:17:17;10.30;99.90
20773;DHT22;10546;50.674;4.616;2022-11-11T20:19:43;10.30;99.90
20773;DHT22;10546;50.674;4.616;2022-11-11T20:22:09;10.30;99.90
20773;DHT22;10546;50.674;4.616;2022-11-11T20:24:36;10.20;99.90
20773;DHT22;10546;50.674;4.616;2022-11-11T20:27:01;10.20;99.90
20773;DHT22;10546;50.674;4.616;2022-11-11T20:29:27;10.20;99.90
20773;DHT22;10546;50.674;4.616;2022-11-11T20:31:53;10.30;99.90
20773;DHT22;10546;50.674;4.616;2022-11-11T20:34:19;10.20;99.90
20773;DHT22;10546;50.674;4.616;2022-11-11T20:36:45;10.20;99.90
20773;DHT22;10546;50.674;4.616;2022-11-11T20:39:10;10.20;99.90
20773;DHT22;10546;50.674;4.616;2022-11-11T20:41:36;10.10;99.90
20773;DHT22;10546;50.674;4.616;2022-11-11T20:44:02;10.10;99.90
20773;DHT22;10546;50.674;4.616;2022-11-11T20:46:27;10.20;99.90
20773;DHT22;10546;50.674;4.616;2022-11-11T20:48:53;10.10;99.90
20773;DHT22;10546;50.674;4.616;2022-11-11T20:51:21;10.10;99.90
20773;DHT22;10546;50.674;4.616;2022-11-11T20:53:55;10.10;99.90
20773;DHT22;10546;50.674;4.616;2022-11-11T20:56:21;10.00;99.90
20773;DHT22;10546;50.674;4.616;2022-11-11T20:58:47;10.00;99.90
20773;DHT22;10546;50.674;4.616;2022-11-11T21:01:23;9.90;99.90
20773;DHT22;10546;50.674;4.616;2022-11-11T21:03:55;10.00;99.90
20773;DHT22;10546;50.674;4.616;2022-11-11T21:06:21;9.90;99.90
20773;DHT22;10546;50.674;4.616;2022-11-11T21:08:47;9.90;99.90
20773;DHT22;10546;50.674;4.616;2022-11-11T21:11:15;10.00;99.90
20773;DHT22;10546;50.674;4.616;2022-11-11T21:13:41;9.90;99.90
20773;DHT22;10546;50.674;4.616;2022-11-11T21:16:14;9.80;99.90
20773;DHT22;10546;50.674;4.616;2022-11-11T21:18:40;9.70;99.90
20773;DHT22;10546;50.674;4.616;2022-11-11T21:21:14;9.70;99.90
20773;DHT22;10546;50.674;4.616;2022-11-11T21:23:40;9.70;99.90
20773;DHT22;10546;50.674;4.616;2022-11-11T21:26:08;9.80;99.90
20773;DHT22;10546;50.674;4.616;2022-11-11T21:28:36;9.60;99.90
20773;DHT22;10546;50.674;4.616;2022-11-11T21:31:12;9.80;99.90
20773;DHT22;10546;50.674;4.616;2022-11-11T21:33:40;9.70;99.90
20773;DHT22;10546;50.674;4.616;2022-11-11T21:36:08;9.60;99.90
20773;DHT22;10546;50.674;4.616;2022-11-11T21:38:35;9.60;99.90
20773;DHT22;10546;50.674;4.616;2022-11-11T21:41:05;9.70;99.90
20773;DHT22;10546;50.674;4.616;2022-11-11T21:43:33;9.70;99.90
20773;DHT22;10546;50.674;4.616;2022-11-11T21:46:01;9.70;99.90
20773;DHT22;10546;50.674;4.616;2022-11-11T21:48:27;9.80;99.90
20773;DHT22;10546;50.674;4.616;2022-11-11T21:50:52;9.80;99.90
20773;DHT22;10546;50.674;4.616;2022-11-11T21:53:18;9.80;99.90
20773;DHT22;10546;50.674;4.616;2022-11-11T21:55:43;9.70;99.90
20773;DHT22;10546;50.674;4.616;2022-11-11T21:58:09;9.80;99.90
20773;DHT22;10546;50.674;4.616;2022-11-11T22:00:35;9.80;99.90
20773;DHT22;10546;50.674;4.616;2022-11-11T22:03:01;9.70;99.90
20773;DHT22;10546;50.674;4.616;2022-11-11T22:05:26;9.60;99.90
20773;DHT22;10546;50.674;4.616;2022-11-11T22:07:52;9.70;99.90
20773;DHT22;10546;50.674;4.616;2022-11-11T22:10:18;9.70;99.90
20773;DHT22;10546;50.674;4.616;2022-11-11T22:12:44;9.70;99.90
20773;DHT22;10546;50.674;4.616;2022-11-11T22:15:09;9.50;99.90
20773;DHT22;10546;50.674;4.616;2022-11-11T22:17:35;9.60;99.90
20773;DHT22;10546;50.674;4.616;2022-11-11T22:20:01;9.50;99.90
20773;DHT22;10546;50.674;4.616;2022-11-11T22:22:27;9.50;99.90
20773;DHT22;10546;50.674;4.616;2022-11-11T22:24:55;9.60;99.90
20773;DHT22;10546;50.674;4.616;2022-11-11T22:27:21;9.70;99.90
20773;DHT22;10546;50.674;4.616;2022-11-11T22:29:46;9.50;99.90
20773;DHT22;10546;50.674;4.616;2022-11-11T22:32:12;9.60;99.90
20773;DHT22;10546;50.674;4.616;2022-11-11T22:34:38;9.50;99.90
20773;DHT22;10546;50.674;4.616;2022-11-11T22:37:03;9.60;99.90
20773;DHT22;10546;50.674;4.616;2022-11-11T22:39:29;9.60;99.90
20773;DHT22;10546;50.674;4.616;2022-11-11T22:41:54;9.70;99.90
20773;DHT22;10546;50.674;4.616;2022-11-11T22:44:20;9.80;99.90
20773;DHT22;10546;50.674;4.616;2022-11-11T22:46:46;9.70;99.90
20773;DHT22;10546;50.674;4.616;2022-11-11T22:49:12;9.70;99.90
20773;DHT22;10546;50.674;4.616;2022-11-11T22:51:41;9.70;99.90
20773;DHT22;10546;50.674;4.616;2022-11-11T22:54:08;9.70;99.90
20773;DHT22;10546;50.674;4.616;2022-11-11T22:56:37;9.80;99.90
20773;DHT22;10546;50.674;4.616;2022-11-11T22:59:03;9.70;99.90
20773;DHT22;10546;50.674;4.616;2022-11-11T23:01:30;9.60;99.90
20773;DHT22;10546;50.674;4.616;2022-11-11T23:03:58;9.70;99.90
20773;DHT22;10546;50.674;4.616;2022-11-11T23:06:29;9.70;99.90
20773;DHT22;10546;50.674;4.616;2022-11-11T23:08:56;9.60;99.90
20773;DHT22;10546;50.674;4.616;2022-11-11T23:11:24;9.60;99.90
20773;DHT22;10546;50.674;4.616;2022-11-11T23:13:51;9.60;99.90
20773;DHT22;10546;50.674;4.616;2022-11-11T23:16:19;9.70;99.90
20773;DHT22;10546;50.674;4.616;2022-11-11T23:18:45;9.50;99.90
20773;DHT22;10546;50.674;4.616;2022-11-11T23:21:14;9.60;99.90
20773;DHT22;10546;50.674;4.616;2022-11-11T23:23:40;9.50;99.90
20773;DHT22;10546;50.674;4.616;2022-11-11T23:26:08;9.50;99.90
20773;DHT22;10546;50.674;4.616;2022-11-11T23:28:35;9.50;99.90
20773;DHT22;10546;50.674;4.616;2022-11-11T23:31:11;9.50;99.90
20773;DHT22;10546;50.674;4.616;2022-11-11T23:33:39;9.40;99.90
20773;DHT22;10546;50.674;4.616;2022-11-11T23:36:08;9.40;99.90
20773;DHT22;10546;50.674;4.616;2022-11-11T23:38:34;9.50;99.90
20773;DHT22;10546;50.674;4.616;2022-11-11T23:41:00;9.50;99.90
20773;DHT22;10546;50.674;4.616;2022-11-11T23:43:26;9.50;99.90
20773;DHT22;10546;50.674;4.616;2022-11-11T23:45:52;9.50;99.90
20773;DHT22;10546;50.674;4.616;2022-11-11T23:48:18;9.50;99.90
20773;DHT22;10546;50.674;4.616;2022-11-11T23:50:44;9.50;99.90
20773;DHT22;10546;50.674;4.616;2022-11-11T23:53:10;9.60;99.90
20773;DHT22;10546;50.674;4.616;2022-11-11T23:55:36;9.50;99.90
20773;DHT22;10546;50.674;4.616;2022-11-11T23:58:01;9.40;99.90
